sensor_id;sensor_type;location;lat;lon;timestamp;P1;durP1;ratioP1;P2;durP2;ratioP2
75584;SDS011;64162;53.508;10.476;2023-02-03T00:00:51;17.60;;;3.33;;
75584;SDS011;64162;53.508;10.476;2023-02-03T00:03:18;25.27;;;3.33;;
75584;SDS011;64162;53.508;10.476;2023-02-03T00:05:44;18.55;;;2.72;;
75584;SDS011;64162;53.508;10.476;2023-02-03T00:08:12;21.42;;;4.00;;
75584;SDS011;64162;53.508;10.476;2023-02-03T00:10:40;29.67;;;5.22;;
75584;SDS011;64162;53.508;10.476;2023-02-03T00:13:07;23.08;;;3.72;;
75584;SDS011;64162;53.508;10.476;2023-02-03T00:15:34;24.80;;;2.92;;
75584;SDS011;64162;53.508;10.476;2023-02-03T00:18:00;24.33;;;4.90;;
75584;SDS011;64162;53.508;10.476;2023-02-03T00:20:27;25.67;;;4.68;;
75584;SDS011;64162;53.508;10.476;2023-02-03T00:22:54;26.92;;;3.70;;
75584;SDS011;64162;53.508;10.476;2023-02-03T00:25:20;20.95;;;4.05;;
75584;SDS011;64162;53.508;10.476;2023-02-03T00:27:47;25.52;;;3.90;;
75584;SDS011;64162;53.508;10.476;2023-02-03T00:30:13;23.42;;;4.97;;
75584;SDS011;64162;53.508;10.476;2023-02-03T00:32:40;27.05;;;5.53;;
75584;SDS011;64162;53.508;10.476;2023-02-03T00:35:06;29.90;;;4.43;;
75584;SDS011;64162;53.508;10.476;2023-02-03T00:37:35;22.35;;;4.50;;
75584;SDS011;64162;53.508;10.476;2023-02-03T00:40:01;21.70;;;3.05;;
75584;SDS011;64162;53.508;10.476;2023-02-03T00:42:29;20.20;;;3.70;;
75584;SDS011;64162;53.508;10.476;2023-02-03T00:44:56;22.45;;;3.67;;
75584;SDS011;64162;53.508;10.476;2023-02-03T00:47:22;18.73;;;3.47;;
75584;SDS011;64162;53.508;10.476;2023-02-03T00:49:49;22.73;;;3.60;;
75584;SDS011;64162;53.508;10.476;2023-02-03T00:52:15;25.00;;;5.68;;
75584;SDS011;64162;53.508;10.476;2023-02-03T00:54:42;26.73;;;3.75;;
75584;SDS011;64162;53.508;10.476;2023-02-03T00:57:08;30.35;;;3.80;;
75584;SDS011;64162;53.508;10.476;2023-02-03T00:59:37;30.92;;;4.47;;
75584;SDS011;64162;53.508;10.476;2023-02-03T01:02:04;28.98;;;4.43;;
75584;SDS011;64162;53.508;10.476;2023-02-03T01:04:30;32.45;;;5.03;;
75584;SDS011;64162;53.508;10.476;2023-02-03T01:06:57;41.70;;;7.57;;
75584;SDS011;64162;53.508;10.476;2023-02-03T01:09:25;37.42;;;5.57;;
75584;SDS011;64162;53.508;10.476;2023-02-03T01:11:52;30.98;;;6.00;;
75584;SDS011;64162;53.508;10.476;2023-02-03T01:14:19;44.53;;;6.97;;
75584;SDS011;64162;53.508;10.476;2023-02-03T01:16:45;42.08;;;6.45;;
75584;SDS011;64162;53.508;10.476;2023-02-03T01:19:12;41.58;;;7.40;;
75584;SDS011;64162;53.508;10.476;2023-02-03T01:21:39;48.22;;;6.80;;
75584;SDS011;64162;53.508;10.476;2023-02-03T01:24:06;44.58;;;7.90;;
75584;SDS011;64162;53.508;10.476;2023-02-03T01:26:37;43.10;;;8.32;;
75584;SDS011;64162;53.508;10.476;2023-02-03T01:29:03;58.60;;;10.48;;
75584;SDS011;64162;53.508;10.476;2023-02-03T01:31:31;61.83;;;9.10;;
75584;SDS011;64162;53.508;10.476;2023-02-03T01:34:00;56.17;;;9.68;;
75584;SDS011;64162;53.508;10.476;2023-02-03T01:36:28;51.80;;;10.25;;
75584;SDS011;64162;53.508;10.476;2023-02-03T01:38:56;69.88;;;12.65;;
75584;SDS011;64162;53.508;10.476;2023-02-03T01:41:24;76.30;;;13.35;;
75584;SDS011;64162;53.508;10.476;2023-02-03T01:43:53;80.00;;;15.55;;
75584;SDS011;64162;53.508;10.476;2023-02-03T01:46:32;96.57;;;20.60;;
75584;SDS011;64162;53.508;10.476;2023-02-03T01:49:11;79.53;;;16.27;;
75584;SDS011;64162;53.508;10.476;2023-02-03T01:51:42;102.00;;;19.80;;
75584;SDS011;64162;53.508;10.476;2023-02-03T01:54:11;99.97;;;18.52;;
75584;SDS011;64162;53.508;10.476;2023-02-03T01:56:43;80.40;;;14.48;;
75584;SDS011;64162;53.508;10.476;2023-02-03T01:59:13;76.70;;;15.70;;
75584;SDS011;64162;53.508;10.476;2023-02-03T02:01:43;85.22;;;16.90;;
75584;SDS011;64162;53.508;10.476;2023-02-03T02:04:11;81.53;;;18.67;;
75584;SDS011;64162;53.508;10.476;2023-02-03T02:06:38;108.60;;;21.48;;
75584;SDS011;64162;53.508;10.476;2023-02-03T02:09:10;83.32;;;17.50;;
75584;SDS011;64162;53.508;10.476;2023-02-03T02:11:36;86.30;;;18.98;;
75584;SDS011;64162;53.508;10.476;2023-02-03T02:14:03;89.82;;;18.92;;
75584;SDS011;64162;53.508;10.476;2023-02-03T02:19:43;85.50;;;18.23;;
75584;SDS011;64162;53.508;10.476;2023-02-03T02:34:13;70.03;;;15.27;;
75584;SDS011;64162;53.508;10.476;2023-02-03T02:37:06;88.65;;;17.17;;
75584;SDS011;64162;53.508;10.476;2023-02-03T02:39:45;89.40;;;17.63;;
75584;SDS011;64162;53.508;10.476;2023-02-03T02:42:31;81.35;;;18.27;;
75584;SDS011;64162;53.508;10.476;2023-02-03T02:45:15;68.65;;;14.50;;
75584;SDS011;64162;53.508;10.476;2023-02-03T02:47:53;87.93;;;19.60;;
75584;SDS011;64162;53.508;10.476;2023-02-03T02:50:25;75.72;;;16.38;;
75584;SDS011;64162;53.508;10.476;2023-02-03T02:52:56;53.25;;;12.57;;
75584;SDS011;64162;53.508;10.476;2023-02-03T02:55:28;78.95;;;16.38;;
75584;SDS011;64162;53.508;10.476;2023-02-03T02:58:02;79.00;;;16.67;;
75584;SDS011;64162;53.508;10.476;2023-02-03T03:00:33;64.95;;;14.60;;
75584;SDS011;64162;53.508;10.476;2023-02-03T03:05:42;54.40;;;12.02;;
75584;SDS011;64162;53.508;10.476;2023-02-03T03:08:16;59.33;;;14.00;;
75584;SDS011;64162;53.508;10.476;2023-02-03T03:10:47;53.28;;;10.65;;
75584;SDS011;64162;53.508;10.476;2023-02-03T03:13:18;79.35;;;18.77;;
75584;SDS011;64162;53.508;10.476;2023-02-03T03:15:49;72.70;;;15.48;;
75584;SDS011;64162;53.508;10.476;2023-02-03T03:18:23;50.15;;;10.32;;
75584;SDS011;64162;53.508;10.476;2023-02-03T03:20:53;79.30;;;18.50;;
75584;SDS011;64162;53.508;10.476;2023-02-03T03:25:58;69.60;;;15.43;;
75584;SDS011;64162;53.508;10.476;2023-02-03T03:28:32;71.38;;;14.60;;
75584;SDS011;64162;53.508;10.476;2023-02-03T03:31:05;59.05;;;13.70;;
75584;SDS011;64162;53.508;10.476;2023-02-03T03:33:32;60.70;;;12.65;;
75584;SDS011;64162;53.508;10.476;2023-02-03T03:38:54;56.67;;;12.20;;
75584;SDS011;64162;53.508;10.476;2023-02-03T03:41:29;47.20;;;10.63;;
75584;SDS011;64162;53.508;10.476;2023-02-03T03:44:08;43.55;;;11.00;;
75584;SDS011;64162;53.508;10.476;2023-02-03T03:46:40;52.75;;;11.68;;
75584;SDS011;64162;53.508;10.476;2023-02-03T03:49:12;50.53;;;10.20;;
75584;SDS011;64162;53.508;10.476;2023-02-03T03:51:40;52.10;;;10.18;;
75584;SDS011;64162;53.508;10.476;2023-02-03T03:54:13;39.63;;;11.32;;
75584;SDS011;64162;53.508;10.476;2023-02-03T03:56:47;45.90;;;10.52;;
75584;SDS011;64162;53.508;10.476;2023-02-03T03:59:21;52.63;;;10.50;;
75584;SDS011;64162;53.508;10.476;2023-02-03T04:01:51;55.25;;;12.93;;
75584;SDS011;64162;53.508;10.476;2023-02-03T04:04:18;48.03;;;10.30;;
75584;SDS011;64162;53.508;10.476;2023-02-03T04:06:47;37.08;;;7.53;;
75584;SDS011;64162;53.508;10.476;2023-02-03T04:09:13;43.03;;;8.10;;
75584;SDS011;64162;53.508;10.476;2023-02-03T04:11:40;51.05;;;10.35;;
75584;SDS011;64162;53.508;10.476;2023-02-03T04:14:25;35.70;;;7.85;;
75584;SDS011;64162;53.508;10.476;2023-02-03T04:16:53;45.50;;;10.02;;
75584;SDS011;64162;53.508;10.476;2023-02-03T04:19:19;51.70;;;9.88;;
75584;SDS011;64162;53.508;10.476;2023-02-03T04:21:46;36.72;;;9.45;;
75584;SDS011;64162;53.508;10.476;2023-02-03T04:24:12;45.83;;;10.40;;
75584;SDS011;64162;53.508;10.476;2023-02-03T04:26:39;47.28;;;8.55;;
75584;SDS011;64162;53.508;10.476;2023-02-03T04:29:05;28.10;;;7.22;;
75584;SDS011;64162;53.508;10.476;2023-02-03T04:31:32;41.00;;;10.75;;
75584;SDS011;64162;53.508;10.476;2023-02-03T04:33:58;42.00;;;10.45;;
75584;SDS011;64162;53.508;10.476;2023-02-03T04:36:25;46.90;;;9.70;;
75584;SDS011;64162;53.508;10.476;2023-02-03T04:38:52;43.35;;;10.00;;
75584;SDS011;64162;53.508;10.476;2023-02-03T04:41:18;37.97;;;9.70;;
75584;SDS011;64162;53.508;10.476;2023-02-03T04:43:44;51.75;;;10.80;;
75584;SDS011;64162;53.508;10.476;2023-02-03T04:46:11;48.97;;;9.55;;
75584;SDS011;64162;53.508;10.476;2023-02-03T04:48:38;34.03;;;7.32;;
75584;SDS011;64162;53.508;10.476;2023-02-03T04:51:05;45.72;;;10.00;;
75584;SDS011;64162;53.508;10.476;2023-02-03T04:53:33;45.25;;;9.25;;
75584;SDS011;64162;53.508;10.476;2023-02-03T04:55:59;21.48;;;5.45;;
75584;SDS011;64162;53.508;10.476;2023-02-03T04:58:26;37.08;;;7.72;;
75584;SDS011;64162;53.508;10.476;2023-02-03T05:00:53;46.05;;;9.57;;
75584;SDS011;64162;53.508;10.476;2023-02-03T05:03:20;38.38;;;8.50;;
75584;SDS011;64162;53.508;10.476;2023-02-03T05:05:48;40.22;;;7.28;;
75584;SDS011;64162;53.508;10.476;2023-02-03T05:08:15;25.90;;;6.55;;
75584;SDS011;64162;53.508;10.476;2023-02-03T05:10:41;39.40;;;8.10;;
75584;SDS011;64162;53.508;10.476;2023-02-03T05:13:08;51.63;;;10.05;;
75584;SDS011;64162;53.508;10.476;2023-02-03T05:15:34;36.58;;;8.38;;
75584;SDS011;64162;53.508;10.476;2023-02-03T05:18:01;42.08;;;9.65;;
75584;SDS011;64162;53.508;10.476;2023-02-03T05:20:27;36.00;;;8.65;;
75584;SDS011;64162;53.508;10.476;2023-02-03T05:22:54;37.50;;;7.20;;
75584;SDS011;64162;53.508;10.476;2023-02-03T05:25:20;35.63;;;8.65;;
75584;SDS011;64162;53.508;10.476;2023-02-03T05:27:47;28.70;;;5.57;;
75584;SDS011;64162;53.508;10.476;2023-02-03T05:30:14;32.70;;;9.77;;
75584;SDS011;64162;53.508;10.476;2023-02-03T05:32:40;36.65;;;7.53;;
75584;SDS011;64162;53.508;10.476;2023-02-03T05:35:07;28.05;;;7.13;;
75584;SDS011;64162;53.508;10.476;2023-02-03T05:37:33;30.77;;;6.25;;
75584;SDS011;64162;53.508;10.476;2023-02-03T05:40:00;38.90;;;8.15;;
75584;SDS011;64162;53.508;10.476;2023-02-03T05:42:47;45.35;;;10.63;;
75584;SDS011;64162;53.508;10.476;2023-02-03T05:45:14;41.65;;;7.90;;
75584;SDS011;64162;53.508;10.476;2023-02-03T05:47:41;27.35;;;5.80;;
75584;SDS011;64162;53.508;10.476;2023-02-03T05:50:08;25.67;;;6.88;;
75584;SDS011;64162;53.508;10.476;2023-02-03T05:52:34;45.85;;;12.82;;
75584;SDS011;64162;53.508;10.476;2023-02-03T05:55:01;45.05;;;13.73;;
75584;SDS011;64162;53.508;10.476;2023-02-03T05:57:27;46.90;;;11.57;;
75584;SDS011;64162;53.508;10.476;2023-02-03T05:59:56;44.97;;;9.85;;
75584;SDS011;64162;53.508;10.476;2023-02-03T06:02:23;52.33;;;10.38;;
75584;SDS011;64162;53.508;10.476;2023-02-03T06:04:49;35.78;;;10.35;;
75584;SDS011;64162;53.508;10.476;2023-02-03T06:07:16;47.45;;;15.80;;
75584;SDS011;64162;53.508;10.476;2023-02-03T06:09:42;43.50;;;9.80;;
75584;SDS011;64162;53.508;10.476;2023-02-03T06:12:09;104.45;;;40.55;;
75584;SDS011;64162;53.508;10.476;2023-02-03T06:14:35;69.85;;;26.05;;
75584;SDS011;64162;53.508;10.476;2023-02-03T06:17:01;77.65;;;29.65;;
75584;SDS011;64162;53.508;10.476;2023-02-03T06:19:29;37.53;;;11.73;;
75584;SDS011;64162;53.508;10.476;2023-02-03T06:21:56;37.25;;;9.27;;
75584;SDS011;64162;53.508;10.476;2023-02-03T06:24:22;38.83;;;8.52;;
75584;SDS011;64162;53.508;10.476;2023-02-03T06:26:48;38.35;;;6.25;;
75584;SDS011;64162;53.508;10.476;2023-02-03T06:29:15;40.50;;;10.43;;
75584;SDS011;64162;53.508;10.476;2023-02-03T06:31:41;36.00;;;12.43;;
75584;SDS011;64162;53.508;10.476;2023-02-03T06:34:08;30.15;;;11.48;;
75584;SDS011;64162;53.508;10.476;2023-02-03T06:36:34;45.47;;;20.48;;
75584;SDS011;64162;53.508;10.476;2023-02-03T06:39:01;49.45;;;17.55;;
75584;SDS011;64162;53.508;10.476;2023-02-03T06:41:27;28.60;;;8.10;;
75584;SDS011;64162;53.508;10.476;2023-02-03T06:43:55;28.52;;;10.35;;
75584;SDS011;64162;53.508;10.476;2023-02-03T06:46:22;29.00;;;10.45;;
75584;SDS011;64162;53.508;10.476;2023-02-03T06:48:53;24.25;;;4.55;;
75584;SDS011;64162;53.508;10.476;2023-02-03T06:51:19;31.38;;;7.30;;
75584;SDS011;64162;53.508;10.476;2023-02-03T06:53:46;59.75;;;22.55;;
75584;SDS011;64162;53.508;10.476;2023-02-03T06:56:13;24.75;;;5.93;;
75584;SDS011;64162;53.508;10.476;2023-02-03T06:58:39;34.38;;;6.55;;
75584;SDS011;64162;53.508;10.476;2023-02-03T07:01:06;27.67;;;8.60;;
75584;SDS011;64162;53.508;10.476;2023-02-03T07:03:32;26.75;;;6.80;;
75584;SDS011;64162;53.508;10.476;2023-02-03T07:05:59;28.10;;;5.82;;
75584;SDS011;64162;53.508;10.476;2023-02-03T07:08:25;21.17;;;5.05;;
75584;SDS011;64162;53.508;10.476;2023-02-03T07:10:52;30.85;;;11.48;;
75584;SDS011;64162;53.508;10.476;2023-02-03T07:13:19;37.17;;;10.15;;
75584;SDS011;64162;53.508;10.476;2023-02-03T07:15:46;38.00;;;13.52;;
75584;SDS011;64162;53.508;10.476;2023-02-03T07:18:12;26.50;;;8.82;;
75584;SDS011;64162;53.508;10.476;2023-02-03T07:20:43;25.73;;;5.93;;
75584;SDS011;64162;53.508;10.476;2023-02-03T07:23:09;37.00;;;9.85;;
75584;SDS011;64162;53.508;10.476;2023-02-03T07:25:36;27.45;;;8.73;;
75584;SDS011;64162;53.508;10.476;2023-02-03T07:28:02;28.85;;;8.18;;
75584;SDS011;64162;53.508;10.476;2023-02-03T07:30:29;31.27;;;8.23;;
75584;SDS011;64162;53.508;10.476;2023-02-03T07:32:56;41.50;;;8.88;;
75584;SDS011;64162;53.508;10.476;2023-02-03T07:35:22;154.48;;;68.25;;
75584;SDS011;64162;53.508;10.476;2023-02-03T07:37:49;50.10;;;14.43;;
75584;SDS011;64162;53.508;10.476;2023-02-03T07:40:16;27.38;;;6.63;;
75584;SDS011;64162;53.508;10.476;2023-02-03T07:42:44;21.70;;;6.30;;
75584;SDS011;64162;53.508;10.476;2023-02-03T07:45:13;42.67;;;11.93;;
75584;SDS011;64162;53.508;10.476;2023-02-03T07:47:50;82.10;;;31.83;;
75584;SDS011;64162;53.508;10.476;2023-02-03T07:50:16;29.80;;;6.82;;
75584;SDS011;64162;53.508;10.476;2023-02-03T07:52:43;29.20;;;7.13;;
75584;SDS011;64162;53.508;10.476;2023-02-03T07:55:10;40.67;;;13.60;;
75584;SDS011;64162;53.508;10.476;2023-02-03T07:57:36;22.08;;;5.40;;
75584;SDS011;64162;53.508;10.476;2023-02-03T08:00:03;30.95;;;8.50;;
75584;SDS011;64162;53.508;10.476;2023-02-03T08:02:37;17.25;;;7.70;;
75584;SDS011;64162;53.508;10.476;2023-02-03T08:05:04;27.85;;;7.97;;
75584;SDS011;64162;53.508;10.476;2023-02-03T08:07:30;26.05;;;7.45;;
75584;SDS011;64162;53.508;10.476;2023-02-03T08:09:57;27.73;;;7.88;;
75584;SDS011;64162;53.508;10.476;2023-02-03T08:12:23;26.45;;;5.53;;
75584;SDS011;64162;53.508;10.476;2023-02-03T08:14:50;23.90;;;6.13;;
75584;SDS011;64162;53.508;10.476;2023-02-03T08:17:16;18.73;;;4.07;;
75584;SDS011;64162;53.508;10.476;2023-02-03T08:19:42;27.33;;;7.18;;
75584;SDS011;64162;53.508;10.476;2023-02-03T08:22:09;13.50;;;2.95;;
75584;SDS011;64162;53.508;10.476;2023-02-03T08:24:41;10.77;;;1.55;;
75584;SDS011;64162;53.508;10.476;2023-02-03T08:27:15;15.52;;;0.63;;
75584;SDS011;64162;53.508;10.476;2023-02-03T08:29:43;15.15;;;1.73;;
75584;SDS011;64162;53.508;10.476;2023-02-03T08:32:12;12.30;;;3.80;;
75584;SDS011;64162;53.508;10.476;2023-02-03T08:34:40;10.40;;;0.52;;
75584;SDS011;64162;53.508;10.476;2023-02-03T08:37:06;11.40;;;0.50;;
75584;SDS011;64162;53.508;10.476;2023-02-03T08:39:33;9.32;;;0.75;;
75584;SDS011;64162;53.508;10.476;2023-02-03T08:42:00;9.57;;;0.52;;
75584;SDS011;64162;53.508;10.476;2023-02-03T08:44:29;14.07;;;1.02;;
75584;SDS011;64162;53.508;10.476;2023-02-03T08:49:24;14.73;;;0.88;;
75584;SDS011;64162;53.508;10.476;2023-02-03T08:51:52;24.70;;;4.43;;
75584;SDS011;64162;53.508;10.476;2023-02-03T08:54:19;21.58;;;3.08;;
75584;SDS011;64162;53.508;10.476;2023-02-03T08:56:47;17.65;;;1.98;;
75584;SDS011;64162;53.508;10.476;2023-02-03T08:59:13;29.35;;;1.88;;
75584;SDS011;64162;53.508;10.476;2023-02-03T09:01:40;31.73;;;4.03;;
75584;SDS011;64162;53.508;10.476;2023-02-03T09:04:11;31.42;;;3.45;;
75584;SDS011;64162;53.508;10.476;2023-02-03T09:06:38;33.13;;;4.75;;
75584;SDS011;64162;53.508;10.476;2023-02-03T09:09:05;23.38;;;1.48;;
75584;SDS011;64162;53.508;10.476;2023-02-03T09:11:32;39.35;;;8.82;;
75584;SDS011;64162;53.508;10.476;2023-02-03T09:13:58;41.00;;;3.15;;
75584;SDS011;64162;53.508;10.476;2023-02-03T09:16:25;41.60;;;6.70;;
75584;SDS011;64162;53.508;10.476;2023-02-03T09:18:51;42.08;;;3.17;;
75584;SDS011;64162;53.508;10.476;2023-02-03T09:21:18;41.88;;;5.07;;
75584;SDS011;64162;53.508;10.476;2023-02-03T09:24:00;43.80;;;14.70;;
75584;SDS011;64162;53.508;10.476;2023-02-03T09:26:27;48.55;;;3.83;;
75584;SDS011;64162;53.508;10.476;2023-02-03T09:28:54;33.45;;;3.40;;
75584;SDS011;64162;53.508;10.476;2023-02-03T09:31:21;55.30;;;8.70;;
75584;SDS011;64162;53.508;10.476;2023-02-03T09:33:47;43.83;;;6.15;;
75584;SDS011;64162;53.508;10.476;2023-02-03T09:36:14;45.65;;;7.15;;
75584;SDS011;64162;53.508;10.476;2023-02-03T09:38:40;41.03;;;4.57;;
75584;SDS011;64162;53.508;10.476;2023-02-03T09:41:16;34.72;;;4.57;;
75584;SDS011;64162;53.508;10.476;2023-02-03T09:43:53;29.67;;;3.97;;
75584;SDS011;64162;53.508;10.476;2023-02-03T09:46:29;54.55;;;3.63;;
75584;SDS011;64162;53.508;10.476;2023-02-03T09:49:08;46.28;;;5.40;;
75584;SDS011;64162;53.508;10.476;2023-02-03T09:52:18;40.45;;;3.55;;
75584;SDS011;64162;53.508;10.476;2023-02-03T09:57:30;43.92;;;7.57;;
75584;SDS011;64162;53.508;10.476;2023-02-03T10:00:03;49.15;;;6.03;;
75584;SDS011;64162;53.508;10.476;2023-02-03T10:02:52;61.42;;;8.73;;
75584;SDS011;64162;53.508;10.476;2023-02-03T10:05:29;43.53;;;4.05;;
75584;SDS011;64162;53.508;10.476;2023-02-03T10:08:15;54.90;;;4.45;;
75584;SDS011;64162;53.508;10.476;2023-02-03T10:10:57;54.25;;;5.18;;
75584;SDS011;64162;53.508;10.476;2023-02-03T10:13:43;63.55;;;4.28;;
75584;SDS011;64162;53.508;10.476;2023-02-03T10:16:33;48.90;;;5.80;;
75584;SDS011;64162;53.508;10.476;2023-02-03T10:19:16;34.90;;;3.88;;
75584;SDS011;64162;53.508;10.476;2023-02-03T10:21:52;47.58;;;2.85;;
75584;SDS011;64162;53.508;10.476;2023-02-03T10:24:44;45.35;;;5.90;;
75584;SDS011;64162;53.508;10.476;2023-02-03T10:27:37;51.40;;;6.20;;
75584;SDS011;64162;53.508;10.476;2023-02-03T10:30:26;47.63;;;3.63;;
75584;SDS011;64162;53.508;10.476;2023-02-03T10:32:56;66.90;;;8.50;;
75584;SDS011;64162;53.508;10.476;2023-02-03T10:35:35;62.35;;;7.32;;
75584;SDS011;64162;53.508;10.476;2023-02-03T10:41:29;64.50;;;11.52;;
75584;SDS011;64162;53.508;10.476;2023-02-03T10:43:56;41.70;;;11.65;;
75584;SDS011;64162;53.508;10.476;2023-02-03T10:46:26;43.38;;;3.58;;
75584;SDS011;64162;53.508;10.476;2023-02-03T10:48:54;52.58;;;7.18;;
75584;SDS011;64162;53.508;10.476;2023-02-03T10:51:23;53.90;;;7.20;;
75584;SDS011;64162;53.508;10.476;2023-02-03T10:53:51;41.85;;;8.80;;
75584;SDS011;64162;53.508;10.476;2023-02-03T10:56:26;40.55;;;6.95;;
75584;SDS011;64162;53.508;10.476;2023-02-03T10:58:56;36.15;;;3.42;;
75584;SDS011;64162;53.508;10.476;2023-02-03T11:01:25;42.20;;;4.45;;
75584;SDS011;64162;53.508;10.476;2023-02-03T11:04:23;44.67;;;5.70;;
75584;SDS011;64162;53.508;10.476;2023-02-03T11:06:58;42.08;;;5.30;;
75584;SDS011;64162;53.508;10.476;2023-02-03T11:12:16;48.88;;;4.97;;
75584;SDS011;64162;53.508;10.476;2023-02-03T11:14:46;37.55;;;3.75;;
75584;SDS011;64162;53.508;10.476;2023-02-03T11:17:18;42.95;;;4.47;;
75584;SDS011;64162;53.508;10.476;2023-02-03T11:19:50;58.65;;;17.33;;
75584;SDS011;64162;53.508;10.476;2023-02-03T11:22:28;38.78;;;4.78;;
75584;SDS011;64162;53.508;10.476;2023-02-03T11:24:57;45.63;;;7.65;;
75584;SDS011;64162;53.508;10.476;2023-02-03T11:27:27;46.90;;;6.38;;
75584;SDS011;64162;53.508;10.476;2023-02-03T11:30:09;49.53;;;5.00;;
75584;SDS011;64162;53.508;10.476;2023-02-03T11:32:42;23.40;;;2.67;;
75584;SDS011;64162;53.508;10.476;2023-02-03T11:35:14;30.05;;;6.43;;
75584;SDS011;64162;53.508;10.476;2023-02-03T11:37:53;48.75;;;4.35;;
75584;SDS011;64162;53.508;10.476;2023-02-03T11:40:29;46.58;;;4.63;;
75584;SDS011;64162;53.508;10.476;2023-02-03T11:43:09;33.15;;;2.55;;
75584;SDS011;64162;53.508;10.476;2023-02-03T11:45:41;29.90;;;1.67;;
75584;SDS011;64162;53.508;10.476;2023-02-03T11:48:30;39.95;;;3.97;;
75584;SDS011;64162;53.508;10.476;2023-02-03T11:51:07;39.42;;;3.10;;
75584;SDS011;64162;53.508;10.476;2023-02-03T11:56:45;25.40;;;2.58;;
75584;SDS011;64162;53.508;10.476;2023-02-03T12:10:47;33.20;;;4.80;;
75584;SDS011;64162;53.508;10.476;2023-02-03T12:22:28;30.83;;;2.22;;
75584;SDS011;64162;53.508;10.476;2023-02-03T12:25:42;27.30;;;2.10;;
75584;SDS011;64162;53.508;10.476;2023-02-03T12:31:37;24.88;;;3.58;;
75584;SDS011;64162;53.508;10.476;2023-02-03T12:34:14;40.70;;;4.45;;
75584;SDS011;64162;53.508;10.476;2023-02-03T12:45:09;27.98;;;4.47;;
75584;SDS011;64162;53.508;10.476;2023-02-03T12:47:42;30.50;;;2.65;;
75584;SDS011;64162;53.508;10.476;2023-02-03T12:56:03;33.42;;;3.38;;
75584;SDS011;64162;53.508;10.476;2023-02-03T12:58:37;34.03;;;2.65;;
75584;SDS011;64162;53.508;10.476;2023-02-03T13:01:24;29.75;;;3.55;;
75584;SDS011;64162;53.508;10.476;2023-02-03T13:04:02;32.88;;;3.53;;
75584;SDS011;64162;53.508;10.476;2023-02-03T13:12:02;20.02;;;3.10;;
75584;SDS011;64162;53.508;10.476;2023-02-03T13:14:35;24.83;;;1.85;;
75584;SDS011;64162;53.508;10.476;2023-02-03T13:17:11;22.88;;;1.77;;
75584;SDS011;64162;53.508;10.476;2023-02-03T13:19:41;35.15;;;4.07;;
75584;SDS011;64162;53.508;10.476;2023-02-03T13:22:22;16.40;;;2.17;;
75584;SDS011;64162;53.508;10.476;2023-02-03T13:24:57;17.27;;;1.05;;
75584;SDS011;64162;53.508;10.476;2023-02-03T13:30:19;14.38;;;2.38;;
75584;SDS011;64162;53.508;10.476;2023-02-03T13:41:26;35.20;;;2.72;;
75584;SDS011;64162;53.508;10.476;2023-02-03T13:44:01;22.38;;;1.58;;
75584;SDS011;64162;53.508;10.476;2023-02-03T13:46:33;19.95;;;1.25;;
75584;SDS011;64162;53.508;10.476;2023-02-03T13:49:01;24.27;;;3.05;;
75584;SDS011;64162;53.508;10.476;2023-02-03T13:51:31;26.85;;;2.03;;
75584;SDS011;64162;53.508;10.476;2023-02-03T13:54:11;26.58;;;1.75;;
75584;SDS011;64162;53.508;10.476;2023-02-03T13:56:42;19.17;;;1.73;;
75584;SDS011;64162;53.508;10.476;2023-02-03T13:59:27;29.48;;;3.85;;
75584;SDS011;64162;53.508;10.476;2023-02-03T14:07:32;20.40;;;2.47;;
75584;SDS011;64162;53.508;10.476;2023-02-03T14:20:47;29.73;;;4.13;;
75584;SDS011;64162;53.508;10.476;2023-02-03T14:23:21;39.50;;;2.88;;
75584;SDS011;64162;53.508;10.476;2023-02-03T14:25:56;29.33;;;2.20;;
75584;SDS011;64162;53.508;10.476;2023-02-03T14:28:30;26.40;;;2.40;;
75584;SDS011;64162;53.508;10.476;2023-02-03T14:31:21;20.38;;;1.50;;
75584;SDS011;64162;53.508;10.476;2023-02-03T14:33:52;31.05;;;1.50;;
75584;SDS011;64162;53.508;10.476;2023-02-03T14:50:04;27.25;;;3.28;;
75584;SDS011;64162;53.508;10.476;2023-02-03T15:00:52;33.20;;;3.72;;
75584;SDS011;64162;53.508;10.476;2023-02-03T15:03:21;20.65;;;2.00;;
75584;SDS011;64162;53.508;10.476;2023-02-03T15:05:55;13.75;;;1.10;;
75584;SDS011;64162;53.508;10.476;2023-02-03T15:13:47;31.50;;;2.92;;
75584;SDS011;64162;53.508;10.476;2023-02-03T15:16:14;25.23;;;2.65;;
75584;SDS011;64162;53.508;10.476;2023-02-03T15:18:44;31.27;;;2.10;;
75584;SDS011;64162;53.508;10.476;2023-02-03T15:21:16;33.97;;;4.15;;
75584;SDS011;64162;53.508;10.476;2023-02-03T15:23:44;18.90;;;1.00;;
75584;SDS011;64162;53.508;10.476;2023-02-03T15:26:24;32.30;;;2.20;;
75584;SDS011;64162;53.508;10.476;2023-02-03T15:28:53;24.67;;;2.53;;
75584;SDS011;64162;53.508;10.476;2023-02-03T15:31:28;23.95;;;3.00;;
75584;SDS011;64162;53.508;10.476;2023-02-03T15:34:01;26.52;;;1.55;;
75584;SDS011;64162;53.508;10.476;2023-02-03T15:36:42;25.20;;;1.88;;
75584;SDS011;64162;53.508;10.476;2023-02-03T15:39:17;26.80;;;2.60;;
75584;SDS011;64162;53.508;10.476;2023-02-03T15:41:45;26.15;;;2.67;;
75584;SDS011;64162;53.508;10.476;2023-02-03T15:44:26;28.48;;;2.97;;
75584;SDS011;64162;53.508;10.476;2023-02-03T15:46:56;18.92;;;1.58;;
75584;SDS011;64162;53.508;10.476;2023-02-03T15:49:31;55.47;;;3.58;;
75584;SDS011;64162;53.508;10.476;2023-02-03T15:52:14;26.30;;;3.47;;
75584;SDS011;64162;53.508;10.476;2023-02-03T15:54:45;22.85;;;1.52;;
75584;SDS011;64162;53.508;10.476;2023-02-03T15:57:24;39.00;;;2.72;;
75584;SDS011;64162;53.508;10.476;2023-02-03T16:02:47;36.47;;;4.20;;
75584;SDS011;64162;53.508;10.476;2023-02-03T16:05:22;33.38;;;5.03;;
75584;SDS011;64162;53.508;10.476;2023-02-03T16:07:51;36.95;;;3.70;;
75584;SDS011;64162;53.508;10.476;2023-02-03T16:10:23;46.60;;;6.32;;
75584;SDS011;64162;53.508;10.476;2023-02-03T16:12:50;17.92;;;2.65;;
75584;SDS011;64162;53.508;10.476;2023-02-03T16:15:20;41.50;;;4.05;;
75584;SDS011;64162;53.508;10.476;2023-02-03T16:17:55;33.33;;;3.30;;
75584;SDS011;64162;53.508;10.476;2023-02-03T16:20:27;37.30;;;6.57;;
75584;SDS011;64162;53.508;10.476;2023-02-03T16:23:03;39.80;;;3.97;;
75584;SDS011;64162;53.508;10.476;2023-02-03T16:26:10;34.63;;;7.53;;
75584;SDS011;64162;53.508;10.476;2023-02-03T16:28:41;57.80;;;12.90;;
75584;SDS011;64162;53.508;10.476;2023-02-03T16:31:26;23.52;;;3.83;;
75584;SDS011;64162;53.508;10.476;2023-02-03T16:34:15;43.40;;;4.82;;
75584;SDS011;64162;53.508;10.476;2023-02-03T16:37:12;44.35;;;4.32;;
75584;SDS011;64162;53.508;10.476;2023-02-03T16:40:21;16.70;;;1.88;;
75584;SDS011;64162;53.508;10.476;2023-02-03T16:43:11;49.03;;;4.82;;
75584;SDS011;64162;53.508;10.476;2023-02-03T16:53:11;28.05;;;2.70;;
75584;SDS011;64162;53.508;10.476;2023-02-03T16:55:40;42.33;;;10.45;;
75584;SDS011;64162;53.508;10.476;2023-02-03T16:58:10;28.42;;;3.00;;
75584;SDS011;64162;53.508;10.476;2023-02-03T17:00:38;43.05;;;4.32;;
75584;SDS011;64162;53.508;10.476;2023-02-03T17:03:08;88.28;;;30.92;;
75584;SDS011;64162;53.508;10.476;2023-02-03T17:05:41;41.28;;;4.00;;
75584;SDS011;64162;53.508;10.476;2023-02-03T17:08:14;32.70;;;2.75;;